sensor_id;sensor_type;location;lat;lon;timestamp;P1;durP1;ratioP1;P2;durP2;ratioP2
3779;SDS011;1905;52.482;9.802;2023-12-20T02:06:46;7.93;;;2.57;;
3779;SDS011;1905;52.482;9.802;2023-12-20T02:09:14;11.87;;;2.83;;
3779;SDS011;1905;52.482;9.802;2023-12-20T02:11:42;6.27;;;1.70;;
3779;SDS011;1905;52.482;9.802;2023-12-20T02:14:10;11.00;;;2.00;;
3779;SDS011;1905;52.482;9.802;2023-12-20T02:16:38;8.53;;;2.40;;
3779;SDS011;1905;52.482;9.802;2023-12-20T02:19:07;9.77;;;2.27;;
3779;SDS011;1905;52.482;9.802;2023-12-20T02:21:42;10.00;;;2.87;;
3779;SDS011;1905;52.482;9.802;2023-12-20T02:24:09;7.60;;;2.60;;
3779;SDS011;1905;52.482;9.802;2023-12-20T02:26:37;8.63;;;2.13;;
3779;SDS011;1905;52.482;9.802;2023-12-20T02:29:05;6.33;;;1.53;;
3779;SDS011;1905;52.482;9.802;2023-12-20T02:31:32;6.80;;;1.93;;
3779;SDS011;1905;52.482;9.802;2023-12-20T02:34:00;5.97;;;1.70;;
3779;SDS011;1905;52.482;9.802;2023-12-20T02:36:28;12.53;;;3.40;;
3779;SDS011;1905;52.482;9.802;2023-12-20T02:38:57;6.20;;;1.90;;
3779;SDS011;1905;52.482;9.802;2023-12-20T02:41:24;9.23;;;1.90;;
3779;SDS011;1905;52.482;9.802;2023-12-20T02:43:52;16.33;;;2.60;;
3779;SDS011;1905;52.482;9.802;2023-12-20T02:46:20;11.13;;;2.03;;
3779;SDS011;1905;52.482;9.802;2023-12-20T02:48:48;10.30;;;2.03;;
3779;SDS011;1905;52.482;9.802;2023-12-20T02:51:16;7.97;;;2.10;;
3779;SDS011;1905;52.482;9.802;2023-12-20T02:53:43;11.40;;;2.00;;
3779;SDS011;1905;52.482;9.802;2023-12-20T02:56:12;10.07;;;1.70;;
3779;SDS011;1905;52.482;9.802;2023-12-20T02:58:40;12.53;;;2.70;;
3779;SDS011;1905;52.482;9.802;2023-12-20T03:01:08;11.20;;;2.17;;
3779;SDS011;1905;52.482;9.802;2023-12-20T03:03:36;9.30;;;2.10;;
3779;SDS011;1905;52.482;9.802;2023-12-20T03:06:03;7.20;;;2.03;;
3779;SDS011;1905;52.482;9.802;2023-12-20T03:08:31;8.00;;;2.20;;
3779;SDS011;1905;52.482;9.802;2023-12-20T03:10:59;10.87;;;2.30;;
3779;SDS011;1905;52.482;9.802;2023-12-20T03:13:28;11.90;;;2.53;;
3779;SDS011;1905;52.482;9.802;2023-12-20T03:15:56;6.90;;;2.40;;
3779;SDS011;1905;52.482;9.802;2023-12-20T03:18:23;8.03;;;1.93;;
3779;SDS011;1905;52.482;9.802;2023-12-20T03:20:51;13.00;;;2.57;;
3779;SDS011;1905;52.482;9.802;2023-12-20T03:23:19;7.77;;;2.07;;
3779;SDS011;1905;52.482;9.802;2023-12-20T03:25:47;11.27;;;2.33;;
3779;SDS011;1905;52.482;9.802;2023-12-20T03:28:14;8.70;;;1.87;;
3779;SDS011;1905;52.482;9.802;2023-12-20T03:30:44;7.13;;;2.17;;
3779;SDS011;1905;52.482;9.802;2023-12-20T03:33:12;12.87;;;2.67;;
3779;SDS011;1905;52.482;9.802;2023-12-20T03:35:39;9.20;;;1.97;;
3779;SDS011;1905;52.482;9.802;2023-12-20T03:38:07;11.43;;;3.13;;
3779;SDS011;1905;52.482;9.802;2023-12-20T03:40:35;8.43;;;2.63;;
3779;SDS011;1905;52.482;9.802;2023-12-20T03:43:03;7.87;;;2.50;;
3779;SDS011;1905;52.482;9.802;2023-12-20T03:45:31;9.67;;;2.43;;
3779;SDS011;1905;52.482;9.802;2023-12-20T03:48:00;9.07;;;3.17;;
3779;SDS011;1905;52.482;9.802;2023-12-20T03:50:28;7.67;;;2.30;;
3779;SDS011;1905;52.482;9.802;2023-12-20T03:52:56;10.60;;;2.40;;
3779;SDS011;1905;52.482;9.802;2023-12-20T03:55:23;14.77;;;2.83;;
3779;SDS011;1905;52.482;9.802;2023-12-20T03:57:51;10.40;;;1.87;;
3779;SDS011;1905;52.482;9.802;2023-12-20T04:00:19;7.10;;;1.50;;
3779;SDS011;1905;52.482;9.802;2023-12-20T04:02:47;9.57;;;1.80;;
3779;SDS011;1905;52.482;9.802;2023-12-20T04:05:16;10.93;;;2.43;;
3779;SDS011;1905;52.482;9.802;2023-12-20T04:07:44;8.10;;;1.50;;
3779;SDS011;1905;52.482;9.802;2023-12-20T04:10:12;9.33;;;2.30;;
3779;SDS011;1905;52.482;9.802;2023-12-20T04:12:39;7.77;;;1.47;;
3779;SDS011;1905;52.482;9.802;2023-12-20T04:15:08;6.60;;;1.70;;
3779;SDS011;1905;52.482;9.802;2023-12-20T04:17:38;17.03;;;2.50;;
3779;SDS011;1905;52.482;9.802;2023-12-20T04:20:06;8.87;;;2.53;;
3779;SDS011;1905;52.482;9.802;2023-12-20T04:22:36;11.90;;;2.57;;
3779;SDS011;1905;52.482;9.802;2023-12-20T04:25:04;7.73;;;2.87;;
3779;SDS011;1905;52.482;9.802;2023-12-20T04:27:32;7.87;;;1.83;;
3779;SDS011;1905;52.482;9.802;2023-12-20T04:30:00;7.60;;;2.40;;
3779;SDS011;1905;52.482;9.802;2023-12-20T04:32:28;8.37;;;2.00;;
3779;SDS011;1905;52.482;9.802;2023-12-20T04:34:55;6.60;;;1.90;;
3779;SDS011;1905;52.482;9.802;2023-12-20T04:37:23;6.57;;;1.90;;
3779;SDS011;1905;52.482;9.802;2023-12-20T04:39:52;8.80;;;1.93;;
3779;SDS011;1905;52.482;9.802;2023-12-20T04:42:21;5.63;;;1.50;;
3779;SDS011;1905;52.482;9.802;2023-12-20T04:44:49;21.43;;;2.80;;
3779;SDS011;1905;52.482;9.802;2023-12-20T04:47:17;9.70;;;2.17;;
3779;SDS011;1905;52.482;9.802;2023-12-20T04:49:44;13.97;;;2.17;;
3779;SDS011;1905;52.482;9.802;2023-12-20T04:52:12;13.07;;;2.37;;
3779;SDS011;1905;52.482;9.802;2023-12-20T04:54:42;10.83;;;2.13;;
3779;SDS011;1905;52.482;9.802;2023-12-20T04:57:12;7.40;;;2.03;;
3779;SDS011;1905;52.482;9.802;2023-12-20T04:59:39;7.07;;;2.30;;
3779;SDS011;1905;52.482;9.802;2023-12-20T05:02:08;9.43;;;2.40;;
3779;SDS011;1905;52.482;9.802;2023-12-20T05:04:36;6.37;;;2.40;;
3779;SDS011;1905;52.482;9.802;2023-12-20T05:07:03;8.07;;;2.50;;
3779;SDS011;1905;52.482;9.802;2023-12-20T05:09:32;11.23;;;2.40;;
3779;SDS011;1905;52.482;9.802;2023-12-20T05:11:59;6.90;;;2.23;;
3779;SDS011;1905;52.482;9.802;2023-12-20T05:14:29;15.40;;;2.87;;
3779;SDS011;1905;52.482;9.802;2023-12-20T05:16:56;8.90;;;2.40;;
3779;SDS011;1905;52.482;9.802;2023-12-20T05:19:24;10.10;;;2.47;;
3779;SDS011;1905;52.482;9.802;2023-12-20T05:21:53;7.57;;;1.90;;
3779;SDS011;1905;52.482;9.802;2023-12-20T05:24:20;13.40;;;3.40;;
3779;SDS011;1905;52.482;9.802;2023-12-20T05:26:48;7.43;;;2.23;;
3779;SDS011;1905;52.482;9.802;2023-12-20T05:29:19;8.03;;;2.50;;
3779;SDS011;1905;52.482;9.802;2023-12-20T05:31:48;14.57;;;3.27;;
3779;SDS011;1905;52.482;9.802;2023-12-20T05:34:15;8.20;;;2.50;;
3779;SDS011;1905;52.482;9.802;2023-12-20T05:36:44;7.80;;;3.30;;
3779;SDS011;1905;52.482;9.802;2023-12-20T05:39:12;8.20;;;2.20;;
3779;SDS011;1905;52.482;9.802;2023-12-20T05:41:39;17.60;;;5.57;;
3779;SDS011;1905;52.482;9.802;2023-12-20T05:44:07;14.90;;;3.20;;
3779;SDS011;1905;52.482;9.802;2023-12-20T05:46:34;14.00;;;2.70;;
3779;SDS011;1905;52.482;9.802;2023-12-20T05:49:04;13.73;;;2.80;;
3779;SDS011;1905;52.482;9.802;2023-12-20T05:51:32;11.93;;;2.50;;
3779;SDS011;1905;52.482;9.802;2023-12-20T05:53:59;11.40;;;2.47;;
3779;SDS011;1905;52.482;9.802;2023-12-20T05:56:27;7.97;;;3.20;;
3779;SDS011;1905;52.482;9.802;2023-12-20T05:58:55;11.20;;;2.40;;
3779;SDS011;1905;52.482;9.802;2023-12-20T06:01:23;9.80;;;4.00;;
3779;SDS011;1905;52.482;9.802;2023-12-20T06:03:51;10.60;;;2.50;;
3779;SDS011;1905;52.482;9.802;2023-12-20T06:06:20;13.30;;;2.70;;
3779;SDS011;1905;52.482;9.802;2023-12-20T06:08:48;8.03;;;2.87;;
3779;SDS011;1905;52.482;9.802;2023-12-20T06:11:16;13.83;;;2.80;;
3779;SDS011;1905;52.482;9.802;2023-12-20T06:13:43;9.50;;;2.97;;
3779;SDS011;1905;52.482;9.802;2023-12-20T06:16:11;8.23;;;2.57;;
3779;SDS011;1905;52.482;9.802;2023-12-20T06:18:39;11.43;;;2.83;;
3779;SDS011;1905;52.482;9.802;2023-12-20T06:21:08;11.30;;;2.70;;
3779;SDS011;1905;52.482;9.802;2023-12-20T06:23:40;13.37;;;3.53;;
3779;SDS011;1905;52.482;9.802;2023-12-20T06:26:08;9.77;;;3.93;;
3779;SDS011;1905;52.482;9.802;2023-12-20T06:28:36;11.80;;;4.53;;
3779;SDS011;1905;52.482;9.802;2023-12-20T06:31:07;11.70;;;3.57;;
3779;SDS011;1905;52.482;9.802;2023-12-20T06:33:35;13.67;;;4.00;;
3779;SDS011;1905;52.482;9.802;2023-12-20T06:36:03;10.40;;;3.30;;
3779;SDS011;1905;52.482;9.802;2023-12-20T06:38:31;14.50;;;4.40;;
3779;SDS011;1905;52.482;9.802;2023-12-20T06:41:04;10.50;;;3.03;;
3779;SDS011;1905;52.482;9.802;2023-12-20T06:43:32;10.13;;;2.70;;
3779;SDS011;1905;52.482;9.802;2023-12-20T06:46:15;8.83;;;2.57;;
3779;SDS011;1905;52.482;9.802;2023-12-20T06:48:43;16.93;;;4.10;;
3779;SDS011;1905;52.482;9.802;2023-12-20T06:51:12;11.30;;;3.43;;
3779;SDS011;1905;52.482;9.802;2023-12-20T06:53:41;8.97;;;2.87;;
3779;SDS011;1905;52.482;9.802;2023-12-20T06:56:11;10.03;;;4.00;;
3779;SDS011;1905;52.482;9.802;2023-12-20T06:58:44;11.77;;;2.93;;
3779;SDS011;1905;52.482;9.802;2023-12-20T07:01:11;11.83;;;4.03;;
3779;SDS011;1905;52.482;9.802;2023-12-20T07:03:40;8.10;;;3.30;;
3779;SDS011;1905;52.482;9.802;2023-12-20T07:06:08;12.80;;;4.10;;
3779;SDS011;1905;52.482;9.802;2023-12-20T07:08:36;10.23;;;3.80;;
3779;SDS011;1905;52.482;9.802;2023-12-20T07:11:04;7.93;;;2.60;;
3779;SDS011;1905;52.482;9.802;2023-12-20T07:13:33;17.67;;;3.60;;
3779;SDS011;1905;52.482;9.802;2023-12-20T07:16:01;7.50;;;2.47;;
3779;SDS011;1905;52.482;9.802;2023-12-20T07:18:29;15.23;;;4.10;;
3779;SDS011;1905;52.482;9.802;2023-12-20T07:20:57;11.60;;;2.47;;
3779;SDS011;1905;52.482;9.802;2023-12-20T07:23:25;15.70;;;3.83;;
3779;SDS011;1905;52.482;9.802;2023-12-20T07:25:53;14.23;;;3.00;;
3779;SDS011;1905;52.482;9.802;2023-12-20T07:28:21;10.80;;;3.73;;
3779;SDS011;1905;52.482;9.802;2023-12-20T07:30:50;9.50;;;2.90;;
3779;SDS011;1905;52.482;9.802;2023-12-20T07:33:18;13.10;;;2.87;;
3779;SDS011;1905;52.482;9.802;2023-12-20T07:35:46;12.13;;;3.80;;
3779;SDS011;1905;52.482;9.802;2023-12-20T07:38:14;10.87;;;3.37;;
3779;SDS011;1905;52.482;9.802;2023-12-20T07:40:42;9.43;;;3.03;;
3779;SDS011;1905;52.482;9.802;2023-12-20T07:43:10;11.37;;;3.83;;
3779;SDS011;1905;52.482;9.802;2023-12-20T07:45:37;16.43;;;3.57;;
3779;SDS011;1905;52.482;9.802;2023-12-20T07:48:07;8.80;;;2.77;;
3779;SDS011;1905;52.482;9.802;2023-12-20T07:50:35;13.40;;;3.57;;
3779;SDS011;1905;52.482;9.802;2023-12-20T07:53:03;10.60;;;3.53;;
3779;SDS011;1905;52.482;9.802;2023-12-20T07:55:31;8.97;;;3.30;;
3779;SDS011;1905;52.482;9.802;2023-12-20T07:57:59;11.10;;;3.57;;
3779;SDS011;1905;52.482;9.802;2023-12-20T08:00:27;8.43;;;3.43;;
3779;SDS011;1905;52.482;9.802;2023-12-20T08:02:55;14.40;;;3.40;;
3779;SDS011;1905;52.482;9.802;2023-12-20T08:05:24;11.70;;;3.07;;
3779;SDS011;1905;52.482;9.802;2023-12-20T08:07:52;9.80;;;3.43;;
3779;SDS011;1905;52.482;9.802;2023-12-20T08:10:20;8.40;;;2.80;;
3779;SDS011;1905;52.482;9.802;2023-12-20T08:12:48;12.03;;;2.80;;
3779;SDS011;1905;52.482;9.802;2023-12-20T08:15:16;20.50;;;3.30;;
3779;SDS011;1905;52.482;9.802;2023-12-20T08:17:43;8.37;;;2.30;;
3779;SDS011;1905;52.482;9.802;2023-12-20T08:20:11;8.60;;;2.80;;
3779;SDS011;1905;52.482;9.802;2023-12-20T08:22:46;10.40;;;3.00;;
3779;SDS011;1905;52.482;9.802;2023-12-20T08:25:14;7.57;;;2.63;;
3779;SDS011;1905;52.482;9.802;2023-12-20T08:27:42;6.97;;;2.00;;
3779;SDS011;1905;52.482;9.802;2023-12-20T08:30:10;12.83;;;3.30;;
3779;SDS011;1905;52.482;9.802;2023-12-20T08:32:38;11.83;;;3.87;;
3779;SDS011;1905;52.482;9.802;2023-12-20T08:35:06;9.87;;;2.77;;
3779;SDS011;1905;52.482;9.802;2023-12-20T08:37:35;9.60;;;2.97;;
3779;SDS011;1905;52.482;9.802;2023-12-20T08:40:05;16.70;;;4.17;;
3779;SDS011;1905;52.482;9.802;2023-12-20T08:42:33;9.20;;;3.43;;
3779;SDS011;1905;52.482;9.802;2023-12-20T08:45:02;9.60;;;4.40;;
3779;SDS011;1905;52.482;9.802;2023-12-20T08:47:30;9.50;;;3.60;;
3779;SDS011;1905;52.482;9.802;2023-12-20T08:49:58;10.13;;;3.80;;
3779;SDS011;1905;52.482;9.802;2023-12-20T08:52:28;14.10;;;3.40;;
3779;SDS011;1905;52.482;9.802;2023-12-20T08:54:56;12.17;;;4.50;;
3779;SDS011;1905;52.482;9.802;2023-12-20T08:57:25;10.77;;;3.73;;
3779;SDS011;1905;52.482;9.802;2023-12-20T08:59:53;16.63;;;3.30;;
3779;SDS011;1905;52.482;9.802;2023-12-20T09:02:21;11.27;;;4.20;;
3779;SDS011;1905;52.482;9.802;2023-12-20T09:04:50;9.90;;;2.90;;
3779;SDS011;1905;52.482;9.802;2023-12-20T09:07:21;10.77;;;3.20;;
3779;SDS011;1905;52.482;9.802;2023-12-20T09:09:50;12.70;;;3.13;;
3779;SDS011;1905;52.482;9.802;2023-12-20T09:12:18;9.87;;;2.83;;
3779;SDS011;1905;52.482;9.802;2023-12-20T09:14:48;8.80;;;3.00;;
3779;SDS011;1905;52.482;9.802;2023-12-20T09:17:17;12.10;;;5.17;;
3779;SDS011;1905;52.482;9.802;2023-12-20T09:19:46;11.13;;;3.30;;
3779;SDS011;1905;52.482;9.802;2023-12-20T09:22:14;15.70;;;4.13;;
3779;SDS011;1905;52.482;9.802;2023-12-20T09:24:42;12.67;;;3.63;;
3779;SDS011;1905;52.482;9.802;2023-12-20T09:27:13;13.70;;;4.13;;
3779;SDS011;1905;52.482;9.802;2023-12-20T09:29:43;10.63;;;3.07;;
3779;SDS011;1905;52.482;9.802;2023-12-20T09:32:13;7.63;;;2.80;;
3779;SDS011;1905;52.482;9.802;2023-12-20T09:34:40;10.37;;;3.40;;
3779;SDS011;1905;52.482;9.802;2023-12-20T09:37:09;9.90;;;3.13;;
3779;SDS011;1905;52.482;9.802;2023-12-20T09:39:37;13.10;;;3.57;;
3779;SDS011;1905;52.482;9.802;2023-12-20T09:42:05;15.13;;;3.67;;
3779;SDS011;1905;52.482;9.802;2023-12-20T09:44:33;12.50;;;4.00;;
3779;SDS011;1905;52.482;9.802;2023-12-20T09:47:03;14.60;;;3.47;;
3779;SDS011;1905;52.482;9.802;2023-12-20T09:49:33;11.30;;;2.90;;
3779;SDS011;1905;52.482;9.802;2023-12-20T09:52:01;13.50;;;3.37;;
3779;SDS011;1905;52.482;9.802;2023-12-20T09:54:32;16.93;;;4.70;;
3779;SDS011;1905;52.482;9.802;2023-12-20T09:57:00;9.43;;;3.10;;
3779;SDS011;1905;52.482;9.802;2023-12-20T09:59:27;10.10;;;3.93;;
3779;SDS011;1905;52.482;9.802;2023-12-20T10:01:55;9.40;;;2.90;;
3779;SDS011;1905;52.482;9.802;2023-12-20T10:04:24;17.30;;;4.47;;
3779;SDS011;1905;52.482;9.802;2023-12-20T10:07:01;15.63;;;3.97;;
3779;SDS011;1905;52.482;9.802;2023-12-20T10:09:32;11.47;;;2.80;;
3779;SDS011;1905;52.482;9.802;2023-12-20T10:12:01;12.73;;;4.47;;
3779;SDS011;1905;52.482;9.802;2023-12-20T10:14:29;12.77;;;4.60;;
3779;SDS011;1905;52.482;9.802;2023-12-20T10:17:01;12.50;;;3.27;;
3779;SDS011;1905;52.482;9.802;2023-12-20T10:19:29;10.90;;;4.00;;
3779;SDS011;1905;52.482;9.802;2023-12-20T10:22:00;16.77;;;4.20;;
3779;SDS011;1905;52.482;9.802;2023-12-20T10:24:28;13.50;;;3.90;;
3779;SDS011;1905;52.482;9.802;2023-12-20T10:27:03;11.77;;;3.60;;
3779;SDS011;1905;52.482;9.802;2023-12-20T10:29:32;11.77;;;3.33;;
3779;SDS011;1905;52.482;9.802;2023-12-20T10:32:22;14.00;;;3.00;;
3779;SDS011;1905;52.482;9.802;2023-12-20T10:34:51;9.83;;;3.07;;
3779;SDS011;1905;52.482;9.802;2023-12-20T10:37:23;15.07;;;3.43;;
3779;SDS011;1905;52.482;9.802;2023-12-20T10:39:52;18.23;;;4.57;;
3779;SDS011;1905;52.482;9.802;2023-12-20T10:42:23;17.00;;;3.80;;
3779;SDS011;1905;52.482;9.802;2023-12-20T10:44:53;17.60;;;3.93;;
3779;SDS011;1905;52.482;9.802;2023-12-20T10:47:21;19.40;;;5.70;;
3779;SDS011;1905;52.482;9.802;2023-12-20T10:49:51;17.60;;;4.60;;
3779;SDS011;1905;52.482;9.802;2023-12-20T10:52:20;8.50;;;3.00;;
3779;SDS011;1905;52.482;9.802;2023-12-20T10:54:52;12.17;;;3.97;;
3779;SDS011;1905;52.482;9.802;2023-12-20T10:57:20;13.10;;;4.07;;
3779;SDS011;1905;52.482;9.802;2023-12-20T10:59:49;14.27;;;4.37;;
3779;SDS011;1905;52.482;9.802;2023-12-20T11:02:21;12.73;;;4.20;;
3779;SDS011;1905;52.482;9.802;2023-12-20T11:04:50;12.53;;;3.40;;
3779;SDS011;1905;52.482;9.802;2023-12-20T11:07:25;12.33;;;3.53;;
3779;SDS011;1905;52.482;9.802;2023-12-20T11:10:00;7.83;;;3.10;;
3779;SDS011;1905;52.482;9.802;2023-12-20T11:12:39;21.10;;;3.97;;
3779;SDS011;1905;52.482;9.802;2023-12-20T11:15:13;11.77;;;3.67;;
3779;SDS011;1905;52.482;9.802;2023-12-20T11:17:44;14.80;;;3.70;;
3779;SDS011;1905;52.482;9.802;2023-12-20T11:20:18;9.80;;;3.20;;
3779;SDS011;1905;52.482;9.802;2023-12-20T11:22:53;10.30;;;3.87;;
3779;SDS011;1905;52.482;9.802;2023-12-20T11:25:23;8.67;;;3.20;;
3779;SDS011;1905;52.482;9.802;2023-12-20T11:28:06;10.33;;;3.10;;
3779;SDS011;1905;52.482;9.802;2023-12-20T11:30:42;8.30;;;2.60;;
3779;SDS011;1905;52.482;9.802;2023-12-20T11:33:13;9.90;;;3.00;;
3779;SDS011;1905;52.482;9.802;2023-12-20T11:35:42;14.83;;;3.33;;
3779;SDS011;1905;52.482;9.802;2023-12-20T11:38:12;9.13;;;2.70;;
3779;SDS011;1905;52.482;9.802;2023-12-20T11:40:41;6.37;;;2.00;;
3779;SDS011;1905;52.482;9.802;2023-12-20T11:43:11;5.77;;;1.87;;
3779;SDS011;1905;52.482;9.802;2023-12-20T11:45:38;6.40;;;2.10;;
3779;SDS011;1905;52.482;9.802;2023-12-20T11:48:17;7.80;;;2.00;;
3779;SDS011;1905;52.482;9.802;2023-12-20T11:50:46;11.53;;;2.10;;
3779;SDS011;1905;52.482;9.802;2023-12-20T11:53:15;6.80;;;1.70;;
3779;SDS011;1905;52.482;9.802;2023-12-20T11:55:47;10.03;;;1.80;;
3779;SDS011;1905;52.482;9.802;2023-12-20T11:58:15;6.43;;;1.50;;
3779;SDS011;1905;52.482;9.802;2023-12-20T12:00:43;6.83;;;2.03;;
3779;SDS011;1905;52.482;9.802;2023-12-20T12:03:14;5.37;;;1.40;;
3779;SDS011;1905;52.482;9.802;2023-12-20T12:05:42;6.37;;;1.90;;
3779;SDS011;1905;52.482;9.802;2023-12-20T12:08:10;7.87;;;1.57;;
3779;SDS011;1905;52.482;9.802;2023-12-20T12:10:41;14.47;;;3.40;;
3779;SDS011;1905;52.482;9.802;2023-12-20T12:13:09;11.53;;;2.70;;
3779;SDS011;1905;52.482;9.802;2023-12-20T12:15:37;6.60;;;2.20;;
3779;SDS011;1905;52.482;9.802;2023-12-20T12:18:05;9.30;;;3.50;;
3779;SDS011;1905;52.482;9.802;2023-12-20T12:20:33;9.63;;;2.33;;
3779;SDS011;1905;52.482;9.802;2023-12-20T12:23:04;6.17;;;1.67;;
3779;SDS011;1905;52.482;9.802;2023-12-20T12:25:34;7.17;;;2.23;;
3779;SDS011;1905;52.482;9.802;2023-12-20T12:28:10;8.73;;;1.67;;
3779;SDS011;1905;52.482;9.802;2023-12-20T12:30:38;5.90;;;1.40;;
3779;SDS011;1905;52.482;9.802;2023-12-20T12:33:19;7.33;;;1.83;;
3779;SDS011;1905;52.482;9.802;2023-12-20T12:35:47;7.00;;;1.80;;
3779;SDS011;1905;52.482;9.802;2023-12-20T12:38:15;7.10;;;1.63;;
3779;SDS011;1905;52.482;9.802;2023-12-20T12:40:43;5.73;;;1.47;;
3779;SDS011;1905;52.482;9.802;2023-12-20T12:43:12;7.70;;;2.00;;
3779;SDS011;1905;52.482;9.802;2023-12-20T12:45:40;6.80;;;1.33;;
3779;SDS011;1905;52.482;9.802;2023-12-20T12:48:08;6.00;;;1.50;;
3779;SDS011;1905;52.482;9.802;2023-12-20T12:50:35;5.30;;;1.03;;
3779;SDS011;1905;52.482;9.802;2023-12-20T12:53:03;7.40;;;1.50;;
3779;SDS011;1905;52.482;9.802;2023-12-20T12:55:35;7.60;;;1.47;;
3779;SDS011;1905;52.482;9.802;2023-12-20T12:58:03;6.20;;;1.60;;
3779;SDS011;1905;52.482;9.802;2023-12-20T13:00:32;8.40;;;1.80;;
3779;SDS011;1905;52.482;9.802;2023-12-20T13:03:00;6.37;;;1.53;;
3779;SDS011;1905;52.482;9.802;2023-12-20T13:05:28;5.67;;;1.07;;
3779;SDS011;1905;52.482;9.802;2023-12-20T13:07:59;5.00;;;0.97;;
3779;SDS011;1905;52.482;9.802;2023-12-20T13:10:26;7.43;;;1.47;;
3779;SDS011;1905;52.482;9.802;2023-12-20T13:12:54;7.43;;;1.30;;
3779;SDS011;1905;52.482;9.802;2023-12-20T13:15:22;5.60;;;1.20;;
3779;SDS011;1905;52.482;9.802;2023-12-20T13:17:51;5.47;;;1.00;;
3779;SDS011;1905;52.482;9.802;2023-12-20T13:20:19;11.70;;;1.80;;
3779;SDS011;1905;52.482;9.802;2023-12-20T13:22:48;8.07;;;1.77;;
3779;SDS011;1905;52.482;9.802;2023-12-20T13:25:16;10.43;;;3.23;;
3779;SDS011;1905;52.482;9.802;2023-12-20T13:27:43;7.87;;;1.57;;
3779;SDS011;1905;52.482;9.802;2023-12-20T13:30:13;11.70;;;1.37;;
3779;SDS011;1905;52.482;9.802;2023-12-20T13:32:40;4.73;;;1.10;;
3779;SDS011;1905;52.482;9.802;2023-12-20T13:35:10;5.47;;;1.40;;
3779;SDS011;1905;52.482;9.802;2023-12-20T13:37:38;7.20;;;1.77;;
3779;SDS011;1905;52.482;9.802;2023-12-20T13:40:07;6.70;;;1.70;;
3779;SDS011;1905;52.482;9.802;2023-12-20T13:42:35;7.33;;;1.23;;
3779;SDS011;1905;52.482;9.802;2023-12-20T13:45:03;9.37;;;1.77;;
3779;SDS011;1905;52.482;9.802;2023-12-20T13:47:32;6.30;;;1.30;;
3779;SDS011;1905;52.482;9.802;2023-12-20T13:50:00;7.10;;;1.80;;
3779;SDS011;1905;52.482;9.802;2023-12-20T13:52:29;6.60;;;1.40;;
3779;SDS011;1905;52.482;9.802;2023-12-20T13:54:59;5.50;;;1.40;;
3779;SDS011;1905;52.482;9.802;2023-12-20T13:57:27;5.37;;;1.27;;
3779;SDS011;1905;52.482;9.802;2023-12-20T14:00:16;6.37;;;1.10;;
3779;SDS011;1905;52.482;9.802;2023-12-20T14:02:44;6.63;;;1.57;;
3779;SDS011;1905;52.482;9.802;2023-12-20T14:05:12;5.10;;;1.00;;
3779;SDS011;1905;52.482;9.802;2023-12-20T14:07:42;9.23;;;1.50;;
3779;SDS011;1905;52.482;9.802;2023-12-20T14:10:11;8.67;;;1.60;;
3779;SDS011;1905;52.482;9.802;2023-12-20T14:12:40;6.40;;;1.63;;
3779;SDS011;1905;52.482;9.802;2023-12-20T14:15:08;9.60;;;1.50;;
3779;SDS011;1905;52.482;9.802;2023-12-20T14:17:38;7.60;;;1.57;;
3779;SDS011;1905;52.482;9.802;2023-12-20T14:20:06;13.93;;;2.07;;
3779;SDS011;1905;52.482;9.802;2023-12-20T14:22:35;7.63;;;1.87;;
3779;SDS011;1905;52.482;9.802;2023-12-20T14:25:07;6.30;;;1.67;;
3779;SDS011;1905;52.482;9.802;2023-12-20T14:27:36;14.50;;;3.37;;
3779;SDS011;1905;52.482;9.802;2023-12-20T14:30:06;9.50;;;3.33;;
3779;SDS011;1905;52.482;9.802;2023-12-20T14:32:35;8.27;;;2.70;;
3779;SDS011;1905;52.482;9.802;2023-12-20T14:35:05;10.03;;;2.07;;
3779;SDS011;1905;52.482;9.802;2023-12-20T14:37:35;7.23;;;2.30;;
3779;SDS011;1905;52.482;9.802;2023-12-20T14:40:07;6.47;;;1.80;;
3779;SDS011;1905;52.482;9.802;2023-12-20T14:42:41;8.23;;;1.53;;
3779;SDS011;1905;52.482;9.802;2023-12-20T14:45:09;8.83;;;2.50;;
3779;SDS011;1905;52.482;9.802;2023-12-20T14:47:37;6.30;;;1.70;;
3779;SDS011;1905;52.482;9.802;2023-12-20T14:50:05;7.43;;;1.93;;
3779;SDS011;1905;52.482;9.802;2023-12-20T14:52:34;11.00;;;2.60;;
3779;SDS011;1905;52.482;9.802;2023-12-20T14:55:03;12.00;;;2.03;;
3779;SDS011;1905;52.482;9.802;2023-12-20T14:57:33;5.87;;;1.60;;
3779;SDS011;1905;52.482;9.802;2023-12-20T15:00:01;10.90;;;1.87;;
3779;SDS011;1905;52.482;9.802;2023-12-20T15:02:29;9.67;;;2.17;;
3779;SDS011;1905;52.482;9.802;2023-12-20T15:04:57;7.90;;;2.40;;
3779;SDS011;1905;52.482;9.802;2023-12-20T15:07:25;8.63;;;2.20;;
3779;SDS011;1905;52.482;9.802;2023-12-20T15:09:53;8.60;;;2.33;;
3779;SDS011;1905;52.482;9.802;2023-12-20T15:12:21;7.37;;;2.13;;
3779;SDS011;1905;52.482;9.802;2023-12-20T15:14:51;8.10;;;3.13;;
3779;SDS011;1905;52.482;9.802;2023-12-20T15:17:18;8.70;;;2.00;;
3779;SDS011;1905;52.482;9.802;2023-12-20T15:19:46;8.50;;;1.60;;
3779;SDS011;1905;52.482;9.802;2023-12-20T15:22:15;8.20;;;2.00;;
3779;SDS011;1905;52.482;9.802;2023-12-20T15:24:43;9.07;;;2.17;;
3779;SDS011;1905;52.482;9.802;2023-12-20T15:27:12;10.73;;;2.03;;
3779;SDS011;1905;52.482;9.802;2023-12-20T15:29:41;6.80;;;2.00;;
3779;SDS011;1905;52.482;9.802;2023-12-20T15:32:10;6.70;;;2.20;;
3779;SDS011;1905;52.482;9.802;2023-12-20T15:34:38;9.33;;;1.97;;
3779;SDS011;1905;52.482;9.802;2023-12-20T15:37:06;8.70;;;1.60;;
3779;SDS011;1905;52.482;9.802;2023-12-20T15:39:34;7.20;;;2.20;;
3779;SDS011;1905;52.482;9.802;2023-12-20T15:42:02;7.70;;;2.20;;
3779;SDS011;1905;52.482;9.802;2023-12-20T15:44:29;9.60;;;2.00;;
3779;SDS011;1905;52.482;9.802;2023-12-20T15:46:58;6.57;;;1.90;;
3779;SDS011;1905;52.482;9.802;2023-12-20T15:49:27;6.40;;;1.60;;
3779;SDS011;1905;52.482;9.802;2023-12-20T15:51:55;9.17;;;1.70;;
3779;SDS011;1905;52.482;9.802;2023-12-20T15:54:28;5.83;;;1.63;;
3779;SDS011;1905;52.482;9.802;2023-12-20T15:56:56;13.43;;;2.70;;
3779;SDS011;1905;52.482;9.802;2023-12-20T15:59:24;5.90;;;1.80;;
3779;SDS011;1905;52.482;9.802;2023-12-20T16:01:53;6.80;;;1.77;;
3779;SDS011;1905;52.482;9.802;2023-12-20T16:04:21;9.23;;;1.90;;
3779;SDS011;1905;52.482;9.802;2023-12-20T16:06:50;8.90;;;1.77;;
3779;SDS011;1905;52.482;9.802;2023-12-20T16:09:18;5.80;;;2.07;;
3779;SDS011;1905;52.482;9.802;2023-12-20T16:11:46;7.40;;;2.40;;
3779;SDS011;1905;52.482;9.802;2023-12-20T16:14:15;5.87;;;1.90;;
3779;SDS011;1905;52.482;9.802;2023-12-20T16:16:44;8.23;;;1.90;;
3779;SDS011;1905;52.482;9.802;2023-12-20T16:19:12;7.23;;;1.53;;
3779;SDS011;1905;52.482;9.802;2023-12-20T16:21:41;8.07;;;1.77;;
3779;SDS011;1905;52.482;9.802;2023-12-20T16:24:10;8.03;;;2.43;;
3779;SDS011;1905;52.482;9.802;2023-12-20T16:26:37;8.17;;;2.30;;
3779;SDS011;1905;52.482;9.802;2023-12-20T16:29:05;8.30;;;2.00;;
3779;SDS011;1905;52.482;9.802;2023-12-20T16:31:33;6.70;;;1.40;;
3779;SDS011;1905;52.482;9.802;2023-12-20T16:34:01;8.07;;;1.97;;
3779;SDS011;1905;52.482;9.802;2023-12-20T16:36:47;8.07;;;1.63;;
3779;SDS011;1905;52.482;9.802;2023-12-20T16:39:18;10.43;;;1.90;;
3779;SDS011;1905;52.482;9.802;2023-12-20T16:41:51;6.80;;;1.70;;
3779;SDS011;1905;52.482;9.802;2023-12-20T16:44:18;6.30;;;1.53;;
3779;SDS011;1905;52.482;9.802;2023-12-20T16:46:46;6.80;;;1.77;;
3779;SDS011;1905;52.482;9.802;2023-12-20T16:49:16;6.10;;;1.53;;
3779;SDS011;1905;52.482;9.802;2023-12-20T16:51:44;6.60;;;1.80;;
3779;SDS011;1905;52.482;9.802;2023-12-20T16:54:12;7.10;;;1.87;;
3779;SDS011;1905;52.482;9.802;2023-12-20T16:56:41;7.80;;;2.60;;
3779;SDS011;1905;52.482;9.802;2023-12-20T16:59:10;6.20;;;1.50;;
3779;SDS011;1905;52.482;9.802;2023-12-20T17:01:38;5.77;;;1.30;;
3779;SDS011;1905;52.482;9.802;2023-12-20T17:04:09;5.73;;;1.40;;
3779;SDS011;1905;52.482;9.802;2023-12-20T17:06:37;6.63;;;1.70;;
3779;SDS011;1905;52.482;9.802;2023-12-20T17:09:05;8.60;;;2.90;;
3779;SDS011;1905;52.482;9.802;2023-12-20T17:11:33;8.23;;;2.90;;
3779;SDS011;1905;52.482;9.802;2023-12-20T17:14:03;7.13;;;2.67;;
3779;SDS011;1905;52.482;9.802;2023-12-20T17:16:30;9.43;;;2.80;;
3779;SDS011;1905;52.482;9.802;2023-12-20T17:18:59;6.53;;;1.90;;
3779;SDS011;1905;52.482;9.802;2023-12-20T17:21:28;7.50;;;1.70;;
3779;SDS011;1905;52.482;9.802;2023-12-20T17:23:56;9.17;;;2.23;;
3779;SDS011;1905;52.482;9.802;2023-12-20T17:26:24;10.43;;;1.63;;